sensor_id;sensor_type;location;lat;lon;timestamp;pressure;altitude;pressure_sealevel;temperature;humidity
24280;BME280;12395;42.808;23.408;2023-05-03T00:01:13;95224.41;;;12.12;50.77
24280;BME280;12395;42.808;23.408;2023-05-03T00:03:39;95228.91;;;12.11;51.45
24280;BME280;12395;42.808;23.408;2023-05-03T00:06:14;95221.56;;;12.07;51.77
24280;BME280;12395;42.808;23.408;2023-05-03T00:08:41;95237.28;;;12.02;51.76
24280;BME280;12395;42.808;23.408;2023-05-03T00:11:07;95237.94;;;11.97;52.16
24280;BME280;12395;42.808;23.408;2023-05-03T00:13:33;95234.03;;;11.93;52.84
24280;BME280;12395;42.808;23.408;2023-05-03T00:15:58;95237.31;;;11.95;52.85
24280;BME280;12395;42.808;23.408;2023-05-03T00:18:24;95224.44;;;11.92;52.80
24280;BME280;12395;42.808;23.408;2023-05-03T00:20:49;95221.78;;;11.99;52.13
24280;BME280;12395;42.808;23.408;2023-05-03T00:23:15;95224.03;;;11.95;52.09
24280;BME280;12395;42.808;23.408;2023-05-03T00:25:41;95221.56;;;12.00;52.31
24280;BME280;12395;42.808;23.408;2023-05-03T00:28:06;95229.75;;;11.99;52.16
24280;BME280;12395;42.808;23.408;2023-05-03T00:30:32;95225.88;;;12.01;52.74
24280;BME280;12395;42.808;23.408;2023-05-03T00:32:58;95224.44;;;11.99;53.01
24280;BME280;12395;42.808;23.408;2023-05-03T00:35:23;95228.72;;;12.00;52.78
24280;BME280;12395;42.808;23.408;2023-05-03T00:37:49;95226.06;;;11.93;53.20
24280;BME280;12395;42.808;23.408;2023-05-03T00:40:14;95214.06;;;11.84;52.87
24280;BME280;12395;42.808;23.408;2023-05-03T00:42:42;95226.50;;;11.84;53.50
24280;BME280;12395;42.808;23.408;2023-05-03T00:45:08;95232.81;;;11.89;53.33
24280;BME280;12395;42.808;23.408;2023-05-03T00:47:35;95231.81;;;11.90;53.90
24280;BME280;12395;42.808;23.408;2023-05-03T00:50:01;95219.16;;;11.73;53.73
24280;BME280;12395;42.808;23.408;2023-05-03T00:52:26;95240.59;;;11.78;53.79
24280;BME280;12395;42.808;23.408;2023-05-03T00:54:52;95235.09;;;11.73;53.99
24280;BME280;12395;42.808;23.408;2023-05-03T00:57:18;95241.44;;;11.72;53.55
24280;BME280;12395;42.808;23.408;2023-05-03T00:59:44;95241.63;;;11.70;53.87
24280;BME280;12395;42.808;23.408;2023-05-03T01:02:10;95238.34;;;11.68;54.06
24280;BME280;12395;42.808;23.408;2023-05-03T01:04:36;95218.97;;;11.68;53.87
24280;BME280;12395;42.808;23.408;2023-05-03T01:12:33;95226.75;;;11.69;54.48
24280;BME280;12395;42.808;23.408;2023-05-03T01:15:07;95233.88;;;11.69;55.10
24280;BME280;12395;42.808;23.408;2023-05-03T01:17:39;95230.22;;;11.70;55.67
24280;BME280;12395;42.808;23.408;2023-05-03T01:20:08;95233.28;;;11.67;55.56
24280;BME280;12395;42.808;23.408;2023-05-03T01:25:22;95207.09;;;11.57;55.52
24280;BME280;12395;42.808;23.408;2023-05-03T01:27:47;95195.28;;;11.53;55.94
24280;BME280;12395;42.808;23.408;2023-05-03T01:30:14;95222.22;;;11.63;56.26
24280;BME280;12395;42.808;23.408;2023-05-03T01:38:06;95175.91;;;11.46;58.23
24280;BME280;12395;42.808;23.408;2023-05-03T01:40:37;95202.41;;;11.59;58.31
24280;BME280;12395;42.808;23.408;2023-05-03T01:43:05;95177.94;;;11.44;57.70
24280;BME280;12395;42.808;23.408;2023-05-03T01:45:31;95215.09;;;11.44;58.14
24280;BME280;12395;42.808;23.408;2023-05-03T01:47:57;95190.19;;;11.25;57.82
24280;BME280;12395;42.808;23.408;2023-05-03T01:50:22;95202.44;;;11.26;58.83
24280;BME280;12395;42.808;23.408;2023-05-03T01:52:48;95199.19;;;11.18;59.53
24280;BME280;12395;42.808;23.408;2023-05-03T01:55:16;95204.88;;;11.28;59.01
24280;BME280;12395;42.808;23.408;2023-05-03T01:57:42;95197.97;;;11.27;59.62
24280;BME280;12395;42.808;23.408;2023-05-03T02:00:08;95202.63;;;11.25;59.29
24280;BME280;12395;42.808;23.408;2023-05-03T02:02:34;95205.09;;;11.20;59.31
24280;BME280;12395;42.808;23.408;2023-05-03T02:04:59;95187.53;;;11.06;59.47
24280;BME280;12395;42.808;23.408;2023-05-03T02:07:24;95182.84;;;10.95;60.09
24280;BME280;12395;42.808;23.408;2023-05-03T02:09:50;95191.44;;;11.10;59.38
24280;BME280;12395;42.808;23.408;2023-05-03T02:12:15;95199.38;;;11.03;59.19
24280;BME280;12395;42.808;23.408;2023-05-03T02:14:41;95193.25;;;10.96;59.66
24280;BME280;12395;42.808;23.408;2023-05-03T02:17:06;95193.84;;;10.92;59.91
24280;BME280;12395;42.808;23.408;2023-05-03T02:19:32;95195.88;;;10.90;59.56
24280;BME280;12395;42.808;23.408;2023-05-03T02:21:57;95194.66;;;10.85;58.84
24280;BME280;12395;42.808;23.408;2023-05-03T02:24:23;95182.00;;;10.81;59.64
24280;BME280;12395;42.808;23.408;2023-05-03T02:26:48;95180.78;;;10.77;57.85
24280;BME280;12395;42.808;23.408;2023-05-03T02:29:14;95183.22;;;10.78;59.14
24280;BME280;12395;42.808;23.408;2023-05-03T02:31:40;95182.38;;;10.65;59.71
24280;BME280;12395;42.808;23.408;2023-05-03T02:34:05;95206.03;;;10.66;59.56
24280;BME280;12395;42.808;23.408;2023-05-03T02:36:30;95203.78;;;10.70;59.63
24280;BME280;12395;42.808;23.408;2023-05-03T02:38:56;95209.09;;;10.76;59.27
24280;BME280;12395;42.808;23.408;2023-05-03T02:41:21;95207.69;;;10.80;58.12
24280;BME280;12395;42.808;23.408;2023-05-03T02:43:47;95205.66;;;10.82;58.49
24280;BME280;12395;42.808;23.408;2023-05-03T02:46:12;95195.66;;;10.84;58.40
24280;BME280;12395;42.808;23.408;2023-05-03T02:48:37;95198.53;;;10.90;57.33
24280;BME280;12395;42.808;23.408;2023-05-03T02:51:04;95190.38;;;10.91;57.07
24280;BME280;12395;42.808;23.408;2023-05-03T02:53:29;95191.81;;;10.94;57.46
24280;BME280;12395;42.808;23.408;2023-05-03T02:55:55;95201.78;;;10.92;58.00
24280;BME280;12395;42.808;23.408;2023-05-03T02:58:21;95209.75;;;10.92;59.54
24280;BME280;12395;42.808;23.408;2023-05-03T03:00:46;95201.97;;;10.77;60.00
24280;BME280;12395;42.808;23.408;2023-05-03T03:03:12;95210.56;;;10.85;58.22
24280;BME280;12395;42.808;23.408;2023-05-03T03:05:37;95210.13;;;10.88;58.93
24280;BME280;12395;42.808;23.408;2023-05-03T03:08:03;95205.03;;;10.87;57.98
24280;BME280;12395;42.808;23.408;2023-05-03T03:10:28;95194.66;;;10.92;57.63
24280;BME280;12395;42.808;23.408;2023-05-03T03:12:54;95206.72;;;10.95;57.27
24280;BME280;12395;42.808;23.408;2023-05-03T03:15:19;95211.59;;;10.98;57.00
24280;BME280;12395;42.808;23.408;2023-05-03T03:17:45;95214.25;;;10.98;57.84
24280;BME280;12395;42.808;23.408;2023-05-03T03:20:11;95193.84;;;10.92;57.08
24280;BME280;12395;42.808;23.408;2023-05-03T03:22:40;95191.81;;;10.94;57.23
24280;BME280;12395;42.808;23.408;2023-05-03T03:25:06;95209.97;;;11.03;57.47
24280;BME280;12395;42.808;23.408;2023-05-03T03:27:32;95205.66;;;10.96;58.40
24280;BME280;12395;42.808;23.408;2023-05-03T03:29:58;95211.38;;;11.06;57.20
24280;BME280;12395;42.808;23.408;2023-05-03T03:32:23;95206.50;;;11.03;57.36
24280;BME280;12395;42.808;23.408;2023-05-03T03:34:50;95209.53;;;11.00;57.67
24280;BME280;12395;42.808;23.408;2023-05-03T03:37:16;95206.50;;;10.96;57.63
24280;BME280;12395;42.808;23.408;2023-05-03T03:39:41;95201.59;;;10.93;57.41
24280;BME280;12395;42.808;23.408;2023-05-03T03:42:09;95210.78;;;11.04;57.89
24280;BME280;12395;42.808;23.408;2023-05-03T03:44:34;95228.34;;;11.05;57.66
24280;BME280;12395;42.808;23.408;2023-05-03T03:46:59;95237.50;;;11.02;57.86
24280;BME280;12395;42.808;23.408;2023-05-03T03:49:25;95228.09;;;11.00;58.44
24280;BME280;12395;42.808;23.408;2023-05-03T03:51:50;95228.94;;;11.00;59.82
24280;BME280;12395;42.808;23.408;2023-05-03T03:54:16;95243.63;;;11.03;59.13
24280;BME280;12395;42.808;23.408;2023-05-03T03:56:41;95228.50;;;10.90;59.49
24280;BME280;12395;42.808;23.408;2023-05-03T03:59:06;95244.00;;;11.00;59.78
24280;BME280;12395;42.808;23.408;2023-05-03T04:01:32;95244.63;;;11.02;59.73
24280;BME280;12395;42.808;23.408;2023-05-03T04:03:57;95257.06;;;11.08;60.22
24280;BME280;12395;42.808;23.408;2023-05-03T04:06:23;95251.78;;;11.08;59.98
24280;BME280;12395;42.808;23.408;2023-05-03T04:08:48;95245.47;;;11.09;61.06
24280;BME280;12395;42.808;23.408;2023-05-03T04:11:14;95257.09;;;11.14;61.43
24280;BME280;12395;42.808;23.408;2023-05-03T04:13:39;95255.25;;;11.08;61.73
24280;BME280;12395;42.808;23.408;2023-05-03T04:16:05;95254.25;;;11.16;62.33
24280;BME280;12395;42.808;23.408;2023-05-03T04:18:31;95267.09;;;11.19;63.35
24280;BME280;12395;42.808;23.408;2023-05-03T04:20:56;95268.53;;;11.28;63.16
24280;BME280;12395;42.808;23.408;2023-05-03T04:23:22;95273.00;;;11.21;64.97
24280;BME280;12395;42.808;23.408;2023-05-03T04:25:47;95271.59;;;11.18;64.78
24280;BME280;12395;42.808;23.408;2023-05-03T04:28:13;95284.06;;;11.31;65.62
24280;BME280;12395;42.808;23.408;2023-05-03T04:30:39;95295.91;;;11.35;65.73
24280;BME280;12395;42.808;23.408;2023-05-03T04:33:07;95286.50;;;11.32;65.63
24280;BME280;12395;42.808;23.408;2023-05-03T04:35:33;95299.38;;;11.35;66.66
24280;BME280;12395;42.808;23.408;2023-05-03T04:38:00;95277.72;;;11.38;67.25
24280;BME280;12395;42.808;23.408;2023-05-03T04:40:25;95289.38;;;11.44;67.52
24280;BME280;12395;42.808;23.408;2023-05-03T04:42:51;95288.97;;;11.47;67.21
24280;BME280;12395;42.808;23.408;2023-05-03T04:45:16;95287.94;;;11.48;67.41
24280;BME280;12395;42.808;23.408;2023-05-03T04:47:42;95298.56;;;11.48;68.61
24280;BME280;12395;42.808;23.408;2023-05-03T04:50:08;95304.88;;;11.40;69.92
24280;BME280;12395;42.808;23.408;2023-05-03T04:52:35;95313.66;;;11.41;70.02
24280;BME280;12395;42.808;23.408;2023-05-03T04:55:00;95304.44;;;11.24;70.95
24280;BME280;12395;42.808;23.408;2023-05-03T04:57:26;95315.28;;;11.29;72.77
24280;BME280;12395;42.808;23.408;2023-05-03T04:59:51;95327.13;;;11.33;73.71
24280;BME280;12395;42.808;23.408;2023-05-03T05:02:18;95336.66;;;11.21;75.07
24280;BME280;12395;42.808;23.408;2023-05-03T05:04:43;95325.03;;;11.15;76.98
24280;BME280;12395;42.808;23.408;2023-05-03T05:07:11;95333.81;;;11.22;78.44
24280;BME280;12395;42.808;23.408;2023-05-03T05:09:36;95319.66;;;10.96;78.85
24280;BME280;12395;42.808;23.408;2023-05-03T05:12:02;95342.38;;;11.11;81.15
24280;BME280;12395;42.808;23.408;2023-05-03T05:14:29;95333.97;;;11.01;82.30
24280;BME280;12395;42.808;23.408;2023-05-03T05:16:55;95332.94;;;11.02;85.65
24280;BME280;12395;42.808;23.408;2023-05-03T05:19:20;95338.47;;;11.01;84.22
24280;BME280;12395;42.808;23.408;2023-05-03T05:21:46;95341.16;;;11.14;86.86
24280;BME280;12395;42.808;23.408;2023-05-03T05:24:12;95326.03;;;11.01;87.62
24280;BME280;12395;42.808;23.408;2023-05-03T05:26:37;95332.75;;;11.04;86.46
24280;BME280;12395;42.808;23.408;2023-05-03T05:29:03;95344.19;;;11.11;88.79
24280;BME280;12395;42.808;23.408;2023-05-03T05:31:28;95337.44;;;11.08;89.67
24280;BME280;12395;42.808;23.408;2023-05-03T05:33:54;95338.69;;;11.12;89.98
24280;BME280;12395;42.808;23.408;2023-05-03T05:36:19;95336.28;;;11.24;87.85
24280;BME280;12395;42.808;23.408;2023-05-03T05:38:45;95347.50;;;11.26;88.87
24280;BME280;12395;42.808;23.408;2023-05-03T05:41:10;95341.19;;;11.27;89.82
24280;BME280;12395;42.808;23.408;2023-05-03T05:43:36;95347.72;;;11.31;86.99
24280;BME280;12395;42.808;23.408;2023-05-03T05:46:01;95325.88;;;11.29;86.71
24280;BME280;12395;42.808;23.408;2023-05-03T05:48:27;95338.16;;;11.43;83.47
24280;BME280;12395;42.808;23.408;2023-05-03T05:50:53;95335.47;;;11.36;85.25
24280;BME280;12395;42.808;23.408;2023-05-03T05:53:18;95329.97;;;11.38;84.54
24280;BME280;12395;42.808;23.408;2023-05-03T05:55:43;95327.34;;;11.51;84.76
24280;BME280;12395;42.808;23.408;2023-05-03T05:58:09;95316.31;;;11.47;84.52
24280;BME280;12395;42.808;23.408;2023-05-03T06:00:36;95337.78;;;11.72;85.22
24280;BME280;12395;42.808;23.408;2023-05-03T06:03:02;95322.09;;;11.84;83.63
24280;BME280;12395;42.808;23.408;2023-05-03T06:05:27;95315.53;;;11.73;82.63
24280;BME280;12395;42.808;23.408;2023-05-03T06:07:53;95336.38;;;12.02;82.05
24280;BME280;12395;42.808;23.408;2023-05-03T06:10:18;95331.03;;;12.15;81.25
24280;BME280;12395;42.808;23.408;2023-05-03T06:12:43;95343.69;;;12.26;81.10
24280;BME280;12395;42.808;23.408;2023-05-03T06:15:09;95341.66;;;12.28;79.63
24280;BME280;12395;42.808;23.408;2023-05-03T06:17:34;95328.78;;;12.25;78.85
24280;BME280;12395;42.808;23.408;2023-05-03T06:20:00;95329.81;;;12.18;77.71
24280;BME280;12395;42.808;23.408;2023-05-03T06:22:26;95328.38;;;12.15;78.06
24280;BME280;12395;42.808;23.408;2023-05-03T06:24:51;95295.75;;;11.95;78.71
24280;BME280;12395;42.808;23.408;2023-05-03T06:27:17;95336.75;;;12.19;79.10
24280;BME280;12395;42.808;23.408;2023-05-03T06:29:42;95325.75;;;12.02;79.38
24280;BME280;12395;42.808;23.408;2023-05-03T06:32:09;95328.00;;;11.99;79.60
24280;BME280;12395;42.808;23.408;2023-05-03T06:34:34;95322.69;;;11.92;79.73
24280;BME280;12395;42.808;23.408;2023-05-03T06:37:00;95310.63;;;11.90;79.40
24280;BME280;12395;42.808;23.408;2023-05-03T06:39:26;95330.03;;;12.16;79.31
24280;BME280;12395;42.808;23.408;2023-05-03T06:41:52;95329.22;;;12.09;80.24
24280;BME280;12395;42.808;23.408;2023-05-03T06:44:18;95329.84;;;11.98;80.03
24280;BME280;12395;42.808;23.408;2023-05-03T06:46:43;95336.97;;;12.04;77.28
24280;BME280;12395;42.808;23.408;2023-05-03T06:49:08;95333.31;;;11.99;78.79
24280;BME280;12395;42.808;23.408;2023-05-03T06:51:34;95338.19;;;12.08;77.74
24280;BME280;12395;42.808;23.408;2023-05-03T06:54:00;95327.38;;;12.23;78.61
24280;BME280;12395;42.808;23.408;2023-05-03T06:56:33;95328.75;;;12.32;77.68
24280;BME280;12395;42.808;23.408;2023-05-03T06:58:59;95324.66;;;12.36;78.68
24280;BME280;12395;42.808;23.408;2023-05-03T07:01:25;95311.97;;;12.45;78.35
24280;BME280;12395;42.808;23.408;2023-05-03T07:03:51;95305.03;;;12.44;78.54
24280;BME280;12395;42.808;23.408;2023-05-03T07:06:16;95310.94;;;12.52;79.21
24280;BME280;12395;42.808;23.408;2023-05-03T07:08:42;95320.94;;;12.63;78.12
24280;BME280;12395;42.808;23.408;2023-05-03T07:11:08;95301.53;;;12.50;76.42
24280;BME280;12395;42.808;23.408;2023-05-03T07:13:34;95311.16;;;12.51;77.03
24280;BME280;12395;42.808;23.408;2023-05-03T07:15:59;95293.81;;;12.42;75.69
24280;BME280;12395;42.808;23.408;2023-05-03T07:18:25;95282.72;;;12.45;76.54
24280;BME280;12395;42.808;23.408;2023-05-03T07:20:51;95281.31;;;12.49;78.47
24280;BME280;12395;42.808;23.408;2023-05-03T07:23:16;95297.63;;;12.59;75.43
24280;BME280;12395;42.808;23.408;2023-05-03T07:25:42;95283.28;;;12.66;76.22
24280;BME280;12395;42.808;23.408;2023-05-03T07:28:08;95308.81;;;12.74;77.28
24280;BME280;12395;42.808;23.408;2023-05-03T07:30:33;95304.31;;;12.81;76.55
24280;BME280;12395;42.808;23.408;2023-05-03T07:32:58;95321.81;;;12.95;76.32
24280;BME280;12395;42.808;23.408;2023-05-03T07:35:24;95312.47;;;12.79;75.39
24280;BME280;12395;42.808;23.408;2023-05-03T07:37:51;95323.03;;;12.99;75.08
24280;BME280;12395;42.808;23.408;2023-05-03T07:40:17;95319.97;;;13.02;74.81
24280;BME280;12395;42.808;23.408;2023-05-03T07:42:43;95306.22;;;13.11;75.50
24280;BME280;12395;42.808;23.408;2023-05-03T07:45:09;95302.44;;;13.32;74.51
24280;BME280;12395;42.808;23.408;2023-05-03T07:47:34;95319.41;;;13.62;73.59
24280;BME280;12395;42.808;23.408;2023-05-03T07:50:03;95315.19;;;13.79;73.12
24280;BME280;12395;42.808;23.408;2023-05-03T07:52:37;95312.28;;;13.87;71.55
24280;BME280;12395;42.808;23.408;2023-05-03T07:55:03;95294.22;;;13.89;70.87
24280;BME280;12395;42.808;23.408;2023-05-03T07:57:29;95322.00;;;14.00;70.17
24280;BME280;12395;42.808;23.408;2023-05-03T07:59:55;95313.41;;;13.98;69.84
24280;BME280;12395;42.808;23.408;2023-05-03T08:02:20;95291.91;;;13.93;70.39
24280;BME280;12395;42.808;23.408;2023-05-03T08:04:46;95289.38;;;14.05;70.29
24280;BME280;12395;42.808;23.408;2023-05-03T08:07:12;95272.34;;;14.06;69.30
24280;BME280;12395;42.808;23.408;2023-05-03T08:09:37;95282.38;;;14.28;72.02
24280;BME280;12395;42.808;23.408;2023-05-03T08:12:03;95289.66;;;14.39;69.82
24280;BME280;12395;42.808;23.408;2023-05-03T08:14:28;95298.25;;;14.41;69.01
24280;BME280;12395;42.808;23.408;2023-05-03T08:16:54;95307.38;;;14.52;69.14
24280;BME280;12395;42.808;23.408;2023-05-03T08:19:19;95313.75;;;14.51;69.03
24280;BME280;12395;42.808;23.408;2023-05-03T08:21:45;95319.53;;;14.66;67.60
24280;BME280;12395;42.808;23.408;2023-05-03T08:24:11;95312.19;;;14.80;67.00
24280;BME280;12395;42.808;23.408;2023-05-03T08:26:38;95317.44;;;15.04;66.17
24280;BME280;12395;42.808;23.408;2023-05-03T08:29:04;95307.44;;;15.29;66.02
24280;BME280;12395;42.808;23.408;2023-05-03T08:31:29;95298.50;;;15.24;65.57
24280;BME280;12395;42.808;23.408;2023-05-03T08:33:55;95297.84;;;15.10;66.09
24280;BME280;12395;42.808;23.408;2023-05-03T08:36:20;95310.28;;;15.16;66.25
24280;BME280;12395;42.808;23.408;2023-05-03T08:38:46;95299.91;;;15.08;66.91
24280;BME280;12395;42.808;23.408;2023-05-03T08:41:21;95323.38;;;15.36;66.83
24280;BME280;12395;42.808;23.408;2023-05-03T08:43:54;95311.72;;;15.49;66.97
24280;BME280;12395;42.808;23.408;2023-05-03T08:46:20;95306.13;;;15.91;68.53
24280;BME280;12395;42.808;23.408;2023-05-03T08:48:47;95308.13;;;16.19;63.90
24280;BME280;12395;42.808;23.408;2023-05-03T08:51:15;95308.16;;;16.42;63.32
24280;BME280;12395;42.808;23.408;2023-05-03T08:53:41;95310.25;;;16.29;61.73
24280;BME280;12395;42.808;23.408;2023-05-03T08:56:07;95281.72;;;15.88;62.44
24280;BME280;12395;42.808;23.408;2023-05-03T08:58:37;95306.41;;;16.01;63.76
24280;BME280;12395;42.808;23.408;2023-05-03T09:01:07;95298.25;;;16.19;63.19
24280;BME280;12395;42.808;23.408;2023-05-03T09:03:35;95302.81;;;16.54;62.67
24280;BME280;12395;42.808;23.408;2023-05-03T09:06:02;95289.84;;;16.85;62.84
24280;BME280;12395;42.808;23.408;2023-05-03T09:08:28;95294.41;;;16.85;62.04
24280;BME280;12395;42.808;23.408;2023-05-03T09:10:54;95289.53;;;16.70;63.81
24280;BME280;12395;42.808;23.408;2023-05-03T09:13:21;95303.16;;;16.57;61.18
24280;BME280;12395;42.808;23.408;2023-05-03T09:15:54;95293.72;;;16.43;63.70
24280;BME280;12395;42.808;23.408;2023-05-03T09:18:20;95297.56;;;16.36;63.43
24280;BME280;12395;42.808;23.408;2023-05-03T09:20:47;95295.09;;;16.34;63.86
24280;BME280;12395;42.808;23.408;2023-05-03T09:25:53;95288.72;;;16.35;61.97
24280;BME280;12395;42.808;23.408;2023-05-03T09:28:19;95276.16;;;16.47;64.69
24280;BME280;12395;42.808;23.408;2023-05-03T09:30:45;95253.38;;;16.33;64.41
24280;BME280;12395;42.808;23.408;2023-05-03T09:33:12;95263.63;;;16.59;65.15
24280;BME280;12395;42.808;23.408;2023-05-03T09:38:28;95272.28;;;17.18;61.70
24280;BME280;12395;42.808;23.408;2023-05-03T09:40:54;95261.84;;;17.33;62.30
24280;BME280;12395;42.808;23.408;2023-05-03T09:43:20;95278.69;;;17.73;59.36
24280;BME280;12395;42.808;23.408;2023-05-03T09:45:45;95267.81;;;17.96;58.67
24280;BME280;12395;42.808;23.408;2023-05-03T09:48:12;95252.41;;;18.41;57.00
24280;BME280;12395;42.808;23.408;2023-05-03T09:50:37;95262.16;;;18.86;56.10
24280;BME280;12395;42.808;23.408;2023-05-03T09:53:05;95240.41;;;19.09;56.07
24280;BME280;12395;42.808;23.408;2023-05-03T09:55:36;95240.88;;;19.49;55.10
24280;BME280;12395;42.808;23.408;2023-05-03T09:58:03;95243.06;;;19.31;54.45
24280;BME280;12395;42.808;23.408;2023-05-03T10:00:34;95250.16;;;19.37;53.71
24280;BME280;12395;42.808;23.408;2023-05-03T10:03:00;95241.81;;;19.38;53.14
24280;BME280;12395;42.808;23.408;2023-05-03T10:05:31;95237.25;;;19.65;52.21
24280;BME280;12395;42.808;23.408;2023-05-03T10:07:59;95237.88;;;19.46;51.71
24280;BME280;12395;42.808;23.408;2023-05-03T10:10:27;95240.09;;;19.54;52.46
24280;BME280;12395;42.808;23.408;2023-05-03T10:12:56;95237.00;;;19.67;50.75
24280;BME280;12395;42.808;23.408;2023-05-03T10:15:22;95237.28;;;19.97;50.87
24280;BME280;12395;42.808;23.408;2023-05-03T10:17:51;95229.50;;;19.69;50.48
24280;BME280;12395;42.808;23.408;2023-05-03T10:20:28;95230.31;;;19.69;51.92
24280;BME280;12395;42.808;23.408;2023-05-03T10:25:28;95240.59;;;20.46;52.14
24280;BME280;12395;42.808;23.408;2023-05-03T10:28:09;95214.69;;;20.35;51.05
24280;BME280;12395;42.808;23.408;2023-05-03T10:30:38;95228.41;;;20.33;51.99
24280;BME280;12395;42.808;23.408;2023-05-03T10:35:40;95215.09;;;19.80;51.67
24280;BME280;12395;42.808;23.408;2023-05-03T10:38:35;95215.03;;;19.48;53.42
24280;BME280;12395;42.808;23.408;2023-05-03T10:41:00;95215.56;;;19.45;51.61
24280;BME280;12395;42.808;23.408;2023-05-03T10:46:28;95209.84;;;19.37;54.43
24280;BME280;12395;42.808;23.408;2023-05-03T10:49:27;95208.50;;;19.66;54.92
24280;BME280;12395;42.808;23.408;2023-05-03T10:51:52;95204.56;;;19.78;53.68
24280;BME280;12395;42.808;23.408;2023-05-03T10:54:17;95192.88;;;19.94;53.00
24280;BME280;12395;42.808;23.408;2023-05-03T10:56:54;95202.59;;;20.00;53.66
24280;BME280;12395;42.808;23.408;2023-05-03T10:59:21;95217.72;;;20.12;51.57
24280;BME280;12395;42.808;23.408;2023-05-03T11:01:48;95208.56;;;20.13;49.92
24280;BME280;12395;42.808;23.408;2023-05-03T11:04:38;95219.94;;;20.20;50.17
24280;BME280;12395;42.808;23.408;2023-05-03T11:07:05;95208.97;;;20.26;51.05
24280;BME280;12395;42.808;23.408;2023-05-03T11:09:32;95214.19;;;20.38;48.89
24280;BME280;12395;42.808;23.408;2023-05-03T11:11:58;95201.81;;;20.47;49.25
24280;BME280;12395;42.808;23.408;2023-05-03T11:14:27;95199.66;;;20.44;51.87
24280;BME280;12395;42.808;23.408;2023-05-03T11:16:53;95194.78;;;20.41;49.85
24280;BME280;12395;42.808;23.408;2023-05-03T11:19:21;95214.00;;;20.54;50.04
24280;BME280;12395;42.808;23.408;2023-05-03T11:21:48;95198.16;;;20.68;50.00
24280;BME280;12395;42.808;23.408;2023-05-03T11:24:13;95186.84;;;20.66;50.57
24280;BME280;12395;42.808;23.408;2023-05-03T11:26:39;95190.09;;;20.73;49.98
24280;BME280;12395;42.808;23.408;2023-05-03T11:29:05;95188.00;;;20.80;50.71
24280;BME280;12395;42.808;23.408;2023-05-03T11:31:30;95197.06;;;20.59;49.10
24280;BME280;12395;42.808;23.408;2023-05-03T11:33:56;95209.47;;;20.70;49.17
24280;BME280;12395;42.808;23.408;2023-05-03T11:36:22;95197.84;;;20.59;48.76
24280;BME280;12395;42.808;23.408;2023-05-03T11:38:47;95186.28;;;20.64;50.13
24280;BME280;12395;42.808;23.408;2023-05-03T11:41:14;95198.44;;;20.66;49.95
24280;BME280;12395;42.808;23.408;2023-05-03T11:43:42;95197.66;;;20.81;49.29
24280;BME280;12395;42.808;23.408;2023-05-03T11:46:08;95177.69;;;20.67;52.76
24280;BME280;12395;42.808;23.408;2023-05-03T11:48:34;95179.38;;;20.78;54.51
24280;BME280;12395;42.808;23.408;2023-05-03T11:51:06;95183.16;;;20.87;53.78
24280;BME280;12395;42.808;23.408;2023-05-03T11:53:32;95179.31;;;20.68;52.08
24280;BME280;12395;42.808;23.408;2023-05-03T11:55:59;95185.44;;;20.48;52.28
24280;BME280;12395;42.808;23.408;2023-05-03T11:58:25;95186.22;;;20.49;52.14
24280;BME280;12395;42.808;23.408;2023-05-03T12:00:54;95136.38;;;19.94;51.81
24280;BME280;12395;42.808;23.408;2023-05-03T12:03:21;95157.44;;;20.08;51.73
24280;BME280;12395;42.808;23.408;2023-05-03T12:05:48;95162.75;;;19.97;52.33
24280;BME280;12395;42.808;23.408;2023-05-03T12:08:14;95165.53;;;20.13;50.78
24280;BME280;12395;42.808;23.408;2023-05-03T12:10:41;95160.38;;;20.06;51.36
24280;BME280;12395;42.808;23.408;2023-05-03T12:13:07;95172.13;;;19.90;52.53
24280;BME280;12395;42.808;23.408;2023-05-03T12:15:35;95178.88;;;19.97;51.92
24280;BME280;12395;42.808;23.408;2023-05-03T12:18:04;95163.06;;;20.01;52.07
24280;BME280;12395;42.808;23.408;2023-05-03T12:20:30;95147.75;;;20.02;51.69
24280;BME280;12395;42.808;23.408;2023-05-03T12:23:01;95153.34;;;20.00;51.77
24280;BME280;12395;42.808;23.408;2023-05-03T12:25:28;95141.84;;;20.10;52.58
24280;BME280;12395;42.808;23.408;2023-05-03T12:27:55;95135.63;;;20.46;53.79
24280;BME280;12395;42.808;23.408;2023-05-03T12:30:22;95133.81;;;20.66;51.29
24280;BME280;12395;42.808;23.408;2023-05-03T12:32:47;95134.28;;;20.48;50.97
24280;BME280;12395;42.808;23.408;2023-05-03T12:35:13;95112.81;;;20.17;51.27
24280;BME280;12395;42.808;23.408;2023-05-03T12:37:39;95127.88;;;20.08;51.15
24280;BME280;12395;42.808;23.408;2023-05-03T12:40:05;95128.72;;;19.76;51.22
24280;BME280;12395;42.808;23.408;2023-05-03T12:42:31;95127.44;;;19.47;53.06
24280;BME280;12395;42.808;23.408;2023-05-03T12:44:57;95122.53;;;19.39;53.24
24280;BME280;12395;42.808;23.408;2023-05-03T12:47:23;95106.22;;;19.19;53.41
24280;BME280;12395;42.808;23.408;2023-05-03T12:49:48;95104.28;;;19.14;54.37
24280;BME280;12395;42.808;23.408;2023-05-03T12:52:14;95116.34;;;19.12;54.57
24280;BME280;12395;42.808;23.408;2023-05-03T12:54:39;95125.59;;;18.94;55.24
24280;BME280;12395;42.808;23.408;2023-05-03T12:57:06;95118.44;;;18.78;55.58
24280;BME280;12395;42.808;23.408;2023-05-03T12:59:34;95120.19;;;18.68;55.62
24280;BME280;12395;42.808;23.408;2023-05-03T13:02:00;95116.22;;;18.48;57.02
24280;BME280;12395;42.808;23.408;2023-05-03T13:04:25;95118.41;;;18.30;56.95
24280;BME280;12395;42.808;23.408;2023-05-03T13:06:50;95128.53;;;18.06;57.36
24280;BME280;12395;42.808;23.408;2023-05-03T13:09:17;95125.41;;;17.93;58.66
24280;BME280;12395;42.808;23.408;2023-05-03T13:11:43;95128.50;;;17.85;61.22
24280;BME280;12395;42.808;23.408;2023-05-03T13:14:09;95120.66;;;17.61;63.30